< < Back
Terminal Aerodrome Forecast


Current Version              Previous Versions:   1  2  3  4  5  6  7  8  9  

Terminal Aerodrome Forecast

376
FTUS44 KMRX 010808 AAB
TAFTYS
TAF AMD
KTYS 010808Z 0108/0206 VRB03KT 5SM BR SCT250
      TEMPO 0109/0113 2SM BR
     FM011500 27005KT P6SM SCT050=

Latest METAR

763
SAUS80 KWBC 011200 RRI
MTRTYS
METAR KTYS 011153Z 00000KT 4SM BR FEW005 BKN250 13/13 A3000 RMK AO2
SLP152 T01330128 10167 20128 51019


USA.gov is the U.S. government's official web portal to all federal, state and local government web resources and services.